SF153 KSEA-KPDX
Flight info
| Callsign | SF153 |
|---|---|
| Flight time | N/A |
| Altitude | 12000 |
| Route | DCT MCKEN V23 DCT MALAY |
| Aircraft | B350/L-SDFG/1556 |
Departure
| Time | 2026-05-04 06:08 |
|---|---|
| Airport | Seattle–Tacoma International Airport (KSEA) |
Arrival
| Time | N/A |
|---|---|
| Airport | Portland International Airport (KPDX) |
| Time | Latitude | Longitude | Altitude | Speed | Heading |
|---|---|---|---|---|---|
| 2026-05-04 05:42 | 47.44043 | -122.29983 | 437 ft | 0 kts | 40° |
| 2026-05-04 05:58 | 47.44032 | -122.29967 | 437 ft | 6 kts | 228° |
| 2026-05-04 05:58 | 47.44026 | -122.29992 | 437 ft | 0 kts | 251° |
| 2026-05-04 05:59 | 47.44026 | -122.29993 | 437 ft | 0 kts | 251° |
| 2026-05-04 06:03 | 47.43958 | -122.30608 | 437 ft | 10 kts | 207° |
| 2026-05-04 06:03 | 47.43837 | -122.30618 | 437 ft | 16 kts | 180° |
| 2026-05-04 06:05 | 47.43168 | -122.30610 | 437 ft | 0 kts | 230° |
| 2026-05-04 06:05 | 47.43158 | -122.30628 | 437 ft | 13 kts | 231° |
| 2026-05-04 06:06 | 47.43182 | -122.30798 | 437 ft | 4 kts | 1° |
| 2026-05-04 06:07 | 47.43256 | -122.30800 | 437 ft | 48 kts | 359° |
| 2026-05-04 06:07 | 47.43936 | -122.30804 | 470 ft | 133 kts | 358° |
| 2026-05-04 06:08 | 47.44961 | -122.30881 | 869 ft | 150 kts | 355° |
| 2026-05-04 06:08 | 47.46017 | -122.30997 | 1297 ft | 162 kts | 357° |
| 2026-05-04 06:08 | 47.47159 | -122.31039 | 1754 ft | 165 kts | 359° |
| 2026-05-04 06:08 | 47.48292 | -122.31038 | 2186 ft | 174 kts | 4° |
| 2026-05-04 06:09 | 47.49455 | -122.30464 | 2661 ft | 186 kts | 36° |
| 2026-05-04 06:09 | 47.50208 | -122.28914 | 3147 ft | 192 kts | 72° |
| 2026-05-04 06:11 | 47.42496 | -122.25275 | 6517 ft | 204 kts | 190° |
| 2026-05-04 06:11 | 47.41100 | -122.25440 | 6987 ft | 203 kts | 189° |
| 2026-05-04 06:13 | 47.30809 | -122.24168 | 9113 ft | 244 kts | 168° |
| 2026-05-04 06:14 | 47.20941 | -122.19321 | 9111 ft | 251 kts | 165° |
| 2026-05-04 06:14 | 47.19290 | -122.18476 | 9111 ft | 251 kts | 165° |
| 2026-05-04 06:15 | 47.17634 | -122.17627 | 9111 ft | 252 kts | 165° |
| 2026-05-04 06:15 | 47.15996 | -122.16788 | 9111 ft | 252 kts | 165° |
| 2026-05-04 06:15 | 47.14338 | -122.15939 | 9111 ft | 252 kts | 165° |
| 2026-05-04 06:15 | 47.12689 | -122.15094 | 9111 ft | 252 kts | 165° |
| 2026-05-04 06:16 | 47.11035 | -122.14248 | 9111 ft | 252 kts | 165° |
| 2026-05-04 06:16 | 47.09380 | -122.13402 | 9111 ft | 252 kts | 165° |
| 2026-05-04 06:16 | 47.07724 | -122.12555 | 9111 ft | 252 kts | 165° |
| 2026-05-04 06:16 | 47.06073 | -122.11712 | 9111 ft | 252 kts | 165° |
| 2026-05-04 06:17 | 47.04413 | -122.10865 | 9111 ft | 252 kts | 165° |
| 2026-05-04 06:17 | 47.02761 | -122.10023 | 9111 ft | 252 kts | 165° |
| 2026-05-04 06:17 | 47.01105 | -122.09179 | 9111 ft | 252 kts | 165° |
| 2026-05-04 06:17 | 46.99468 | -122.08353 | 9110 ft | 251 kts | 167° |
| 2026-05-04 06:18 | 46.97771 | -122.07968 | 9113 ft | 245 kts | 183° |
| 2026-05-04 06:18 | 46.96078 | -122.08085 | 9112 ft | 242 kts | 191° |
| 2026-05-04 06:18 | 46.94412 | -122.08430 | 9111 ft | 241 kts | 194° |
| 2026-05-04 06:20 | 46.83029 | -122.12294 | 9111 ft | 239 kts | 199° |
| 2026-05-04 06:20 | 46.81413 | -122.12896 | 9111 ft | 239 kts | 199° |
| 2026-05-04 06:21 | 46.74966 | -122.15314 | 9111 ft | 239 kts | 199° |
| 2026-05-04 06:21 | 46.73351 | -122.15921 | 9111 ft | 239 kts | 199° |
| 2026-05-04 06:22 | 46.71755 | -122.16522 | 9111 ft | 239 kts | 199° |
| 2026-05-04 06:22 | 46.70141 | -122.17129 | 9111 ft | 239 kts | 199° |
| 2026-05-04 06:25 | 46.49150 | -122.24998 | 9111 ft | 240 kts | 199° |
| 2026-05-04 06:25 | 46.47537 | -122.25600 | 9111 ft | 240 kts | 199° |
| 2026-05-04 06:26 | 46.45918 | -122.26204 | 9111 ft | 240 kts | 199° |
| 2026-05-04 06:26 | 46.44300 | -122.26807 | 9111 ft | 240 kts | 199° |
| 2026-05-04 06:26 | 46.42684 | -122.27410 | 9111 ft | 240 kts | 199° |
| 2026-05-04 06:26 | 46.41066 | -122.28013 | 9110 ft | 239 kts | 199° |
| 2026-05-04 06:27 | 46.34629 | -122.30408 | 9111 ft | 240 kts | 199° |
| 2026-05-04 06:28 | 46.33012 | -122.31008 | 9111 ft | 240 kts | 199° |
| 2026-05-04 06:28 | 46.31396 | -122.31607 | 9111 ft | 240 kts | 199° |
| 2026-05-04 06:28 | 46.29778 | -122.32207 | 9111 ft | 240 kts | 199° |
| 2026-05-04 06:28 | 46.28164 | -122.32805 | 9111 ft | 240 kts | 199° |
| 2026-05-04 06:29 | 46.26619 | -122.33377 | 9111 ft | 240 kts | 199° |
| 2026-05-04 06:29 | 46.25865 | -122.33656 | 9111 ft | 240 kts | 199° |
| 2026-05-04 06:29 | 46.24249 | -122.34254 | 9111 ft | 240 kts | 199° |
| 2026-05-04 06:29 | 46.22635 | -122.34851 | 9111 ft | 240 kts | 199° |
| 2026-05-04 06:30 | 46.21564 | -122.35247 | 9111 ft | 240 kts | 199° |
| 2026-05-04 06:30 | 46.19403 | -122.36045 | 9111 ft | 240 kts | 199° |
| 2026-05-04 06:30 | 46.18333 | -122.36440 | 9111 ft | 240 kts | 199° |
| 2026-05-04 06:30 | 46.16185 | -122.37233 | 9111 ft | 240 kts | 199° |
| 2026-05-04 06:31 | 46.14548 | -122.37837 | 9111 ft | 240 kts | 199° |
| 2026-05-04 06:31 | 46.12953 | -122.38424 | 9111 ft | 240 kts | 199° |
| 2026-05-04 06:31 | 46.11335 | -122.39020 | 9111 ft | 240 kts | 199° |
| 2026-05-04 06:31 | 46.09717 | -122.39616 | 9111 ft | 240 kts | 199° |
| 2026-05-04 06:32 | 46.08100 | -122.40211 | 9111 ft | 240 kts | 199° |
| 2026-05-04 06:33 | 45.96793 | -122.44360 | 9111 ft | 240 kts | 199° |
| 2026-05-04 06:34 | 45.95176 | -122.44952 | 9111 ft | 240 kts | 199° |
| 2026-05-04 06:34 | 45.93555 | -122.45545 | 9111 ft | 240 kts | 199° |
| 2026-05-04 06:34 | 45.91934 | -122.46138 | 9111 ft | 240 kts | 199° |
| 2026-05-04 06:34 | 45.90319 | -122.46728 | 9111 ft | 240 kts | 199° |
| 2026-05-04 06:35 | 45.88702 | -122.47319 | 9111 ft | 240 kts | 199° |
| 2026-05-04 06:36 | 45.77378 | -122.51445 | 9111 ft | 240 kts | 199° |
| 2026-05-04 06:37 | 45.75760 | -122.52033 | 9111 ft | 240 kts | 199° |
| 2026-05-04 06:37 | 45.74141 | -122.52622 | 9111 ft | 240 kts | 199° |
| 2026-05-04 06:37 | 45.72524 | -122.53209 | 9111 ft | 240 kts | 199° |
| 2026-05-04 06:37 | 45.70926 | -122.53789 | 9111 ft | 240 kts | 199° |
| 2026-05-04 06:38 | 45.69306 | -122.54377 | 9111 ft | 240 kts | 199° |
| 2026-05-04 06:38 | 45.67689 | -122.54963 | 9111 ft | 240 kts | 199° |
| 2026-05-04 06:40 | 45.56314 | -122.58812 | 9105 ft | 246 kts | 180° |
| 2026-05-04 06:40 | 45.54678 | -122.58009 | 9110 ft | 256 kts | 151° |
| 2026-05-04 06:40 | 45.53724 | -122.56732 | 9111 ft | 262 kts | 130° |